Time;durP1;ratioP1;P1;durP2;ratioP2;P2;SDS_P1;SDS_P2;PMS_P1;PMS_P2;Temp;Humidity;BMP_temperature;BMP_pressure;BME280_temperature;BME280_humidity;BME280_pressure;Samples;Min_cycle;Max_cycle;Signal;HPM_P1;HPM_P2
2022/08/01 00:06:45;;;;;;;4.15;2.95;;;;;;;15.94;66.03;99917.47;30089388;29;96930;-63
2022/08/01 00:21:46;;;;;;;4.22;2.78;;;;;;;15.62;67.36;99912.78;30035597;29;103049;-62
2022/08/01 00:36:46;;;;;;;5.30;3.28;;;;;;;15.44;67.97;99912.63;30058056;29;97029;-62
2022/08/01 00:51:48;;;;;;;5.18;3.92;;;;;;;15.45;68.52;99893.63;30057835;29;97373;-62
2022/08/01 01:07:09;;;;;;;4.87;3.07;;;;;;;15.52;69.07;99890.91;30056808;29;97000;-61
2022/08/01 01:22:29;;;;;;;4.03;2.90;;;;;;;15.54;68.60;99892.34;30055085;29;97379;-63
2022/08/01 01:37:32;;;;;;;4.23;3.43;;;;;;;15.59;69.36;99888.22;30042420;29;96764;-62
2022/08/01 01:52:34;;;;;;;4.10;3.50;;;;;;;15.86;69.16;99865.63;30033955;29;97448;-63
2022/08/01 02:07:35;;;;;;;6.07;3.60;;;;;;;15.68;68.52;99865.47;30033143;29;96667;-62
2022/08/01 02:22:55;;;;;;;3.83;2.93;;;;;;;15.33;69.54;99873.81;30031544;29;96605;-61
2022/08/01 02:37:58;;;;;;;6.90;3.67;;;;;;;14.96;69.98;99870.75;30028623;29;97184;-63
2022/08/01 02:53:00;;;;;;;4.97;3.73;;;;;;;14.76;70.60;99862.72;30028490;29;96643;-63
2022/08/01 03:08:00;;;;;;;5.80;4.03;;;;;;;14.79;71.14;99857.78;30026439;29;97199;-63
2022/08/01 03:23:09;;;;;;;7.73;4.00;;;;;;;14.96;71.20;99865.41;30025214;29;117395;-64
2022/08/01 03:38:12;;;;;;;5.93;3.30;;;;;;;15.13;71.04;99863.94;30022701;29;97512;-63
2022/08/01 03:53:13;;;;;;;8.47;3.77;;;;;;;15.39;70.83;99868.44;30020034;29;96926;-63
2022/08/01 04:08:14;;;;;;;5.43;3.30;;;;;;;15.61;70.62;99881.59;30020965;29;96606;-65
2022/08/01 04:23:24;;;;;;;6.55;3.92;;;;;;;15.54;70.57;99884.31;29996648;29;97212;-61
2022/08/01 04:38:27;;;;;;;7.23;3.93;;;;;;;15.64;70.64;99869.63;30063311;29;97105;-64
2022/08/01 04:53:27;;;;;;;10.17;4.20;;;;;;;15.71;70.93;99875.78;30132180;29;97561;-63
2022/08/01 05:08:28;;;;;;;6.95;3.70;;;;;;;15.79;70.96;99882.75;30062659;29;96761;-65
2022/08/01 05:23:28;;;;;;;6.60;3.95;;;;;;;15.88;70.71;99882.38;30034469;29;97046;-65
2022/08/01 05:38:29;;;;;;;9.05;5.47;;;;;;;16.13;71.15;99876.28;30033750;29;97033;-65
2022/08/01 05:53:29;;;;;;;6.97;5.82;;;;;;;16.36;71.74;99882.94;30032290;29;118429;-65
2022/08/01 06:08:30;;;;;;;8.18;7.03;;;;;;;16.82;72.00;99881.81;30030721;29;96726;-63
2022/08/01 06:23:32;;;;;;;7.33;6.50;;;;;;;17.59;71.46;99889.63;30028178;29;96719;-64
2022/08/01 06:38:32;;;;;;;9.00;6.32;;;;;;;18.61;71.04;99892.72;30028071;29;96778;-64
2022/08/01 06:53:33;;;;;;;7.70;4.78;;;;;;;19.61;68.87;99885.66;30023988;29;97129;-63
2022/08/01 07:08:33;;;;;;;9.40;4.40;;;;;;;20.96;66.69;99895.22;30025382;29;97270;-63
2022/08/01 07:23:34;;;;;;;4.50;3.03;;;;;;;22.41;62.41;99891.72;30020952;29;117069;-62
2022/08/01 07:38:34;;;;;;;3.60;3.03;;;;;;;23.28;59.42;99900.63;30019883;29;96689;-63
2022/08/01 07:53:35;;;;;;;5.80;3.10;;;;;;;24.03;56.60;99904.28;30018689;29;97662;-64
2022/08/01 08:08:35;;;;;;;4.53;3.33;;;;;;;25.20;53.05;99910.97;30016488;29;96708;-62
2022/08/01 08:38:54;;;;;;;5.10;3.10;;;;;;;26.75;47.01;99926.75;30011292;29;97108;-62
2022/08/01 08:53:57;;;;;;;6.22;3.33;;;;;;;26.12;45.80;99947.31;30033561;29;97291;-61
2022/08/01 09:08:57;;;;;;;7.57;3.43;;;;;;;25.58;47.52;99954.31;30033663;29;96790;-64
2022/08/01 09:24:02;;;;;;;5.07;3.13;;;;;;;27.25;44.62;99949.31;30033295;29;96884;-62
2022/08/01 09:39:12;;;;;;;7.80;3.40;;;;;;;28.68;42.93;99942.47;30029706;29;97485;-60
2022/08/01 09:54:28;;;;;;;9.47;3.13;;;;;;;31.05;38.22;99948.78;30025812;29;97155;-61
2022/08/01 10:09:37;;;;;;;6.17;2.27;;;;;;;32.72;35.93;99937.19;30022429;29;97488;-60
2022/08/01 10:24:39;;;;;;;4.17;2.60;;;;;;;33.45;33.27;99929.22;30025273;29;96722;-61
2022/08/01 10:39:39;;;;;;;6.73;2.20;;;;;;;33.44;32.29;99933.13;30022018;29;96800;-60
2022/08/01 10:54:40;;;;;;;5.72;2.33;;;;;;;32.13;34.03;99925.75;30022338;29;96898;-62
2022/08/01 11:09:44;;;;;;;4.25;2.85;;;;;;;32.09;34.26;99919.25;30022795;29;97344;-60
2022/08/01 11:24:47;;;;;;;3.77;2.50;;;;;;;30.84;36.20;99927.25;30019350;29;96742;-62
2022/08/01 11:40:18;;;;;;;3.30;2.80;;;;;;;30.83;37.33;99916.56;30012162;29;97601;-64
2022/08/01 11:55:18;;;;;;;7.27;3.23;;;;;;;30.66;36.87;99929.06;30009982;29;96744;-64
2022/08/01 12:10:20;;;;;;;5.55;2.83;;;;;;;30.66;36.42;99915.31;30011230;29;97039;-63
2022/08/01 12:25:22;;;;;;;4.10;2.30;;;;;;;31.38;35.99;99907.19;30008106;29;97144;-63
2022/08/01 12:40:30;;;;;;;6.47;2.40;;;;;;;31.16;35.33;99902.56;30007655;29;97712;-63
2022/08/01 12:55:30;;;;;;;3.37;2.10;;;;;;;31.30;35.76;99903.25;30006035;29;96842;-62
2022/08/01 13:10:31;;;;;;;3.70;2.63;;;;;;;30.22;36.67;99911.34;30005960;29;96835;-61
2022/08/01 13:25:31;;;;;;;4.55;2.72;;;;;;;30.35;37.51;99904.22;30004886;29;96878;-62
2022/08/01 13:40:32;;;;;;;4.40;2.90;;;;;;;30.57;37.83;99911.69;30021574;29;97402;-63
2022/08/01 13:55:32;;;;;;;5.75;2.95;;;;;;;31.10;37.22;99903.81;30020612;29;97822;-63
2022/08/01 14:10:32;;;;;;;5.70;1.90;;;;;;;31.02;36.26;99914.44;30019728;29;96781;-62
2022/08/01 14:25:33;;;;;;;4.95;2.50;;;;;;;29.94;36.91;99927.91;30030151;29;96996;-64
2022/08/01 14:40:34;;;;;;;2.30;2.00;;;;;;;29.89;37.95;99919.75;30026457;29;97262;-64
2022/08/01 14:55:35;;;;;;;2.77;2.13;;;;;;;29.23;39.15;99930.84;30024710;29;97869;-63
2022/08/01 15:10:35;;;;;;;1.63;1.40;;;;;;;29.24;39.39;99927.00;30012654;29;97396;-64
2022/08/01 15:25:36;;;;;;;2.70;1.70;;;;;;;28.57;40.75;99919.84;30024368;29;97101;-65
2022/08/01 15:40:37;;;;;;;3.15;1.45;;;;;;;28.46;40.43;99934.78;30021427;29;96844;-61
2022/08/01 15:55:38;;;;;;;2.77;1.30;;;;;;;27.42;43.03;99964.50;30019645;29;96925;-62
2022/08/01 16:10:39;;;;;;;1.03;0.90;;;;;;;25.83;46.42;99988.88;30020020;29;96698;-61
2022/08/01 16:25:39;;;;;;;4.05;0.93;;;;;;;25.33;48.11;99986.78;30018487;29;97618;-63
2022/08/01 16:40:40;;;;;;;1.80;0.80;;;;;;;25.40;47.77;100000.13;30017073;29;96897;-64
2022/08/01 16:55:40;;;;;;;2.00;1.00;;;;;;;24.76;49.02;100006.88;30010672;29;97576;-66
2022/08/01 17:10:40;;;;;;;0.50;0.50;;;;;;;23.79;51.41;100010.78;30019060;29;97352;-61
2022/08/01 17:25:41;;;;;;;;;;;;;;;23.20;53.72;100022.59;30022540;29;97228;-63
2022/08/01 17:40:41;;;;;;;2.43;0.80;;;;;;;22.77;55.13;100053.09;30021174;29;98052;-61
2022/08/01 17:55:41;;;;;;;3.67;1.07;;;;;;;22.40;57.23;100074.63;30033230;29;97771;-61
2022/08/01 18:10:42;;;;;;;2.37;1.17;;;;;;;22.01;59.06;100090.88;30137019;29;97304;-61
2022/08/01 18:25:42;;;;;;;4.97;1.30;;;;;;;21.57;61.39;100094.25;30058161;29;97108;-62
2022/08/01 18:40:43;;;;;;;4.43;2.00;;;;;;;21.15;63.44;100098.13;30027345;29;96845;-62
2022/08/01 18:55:43;;;;;;;2.60;1.60;;;;;;;21.19;65.86;100110.09;30026894;29;97164;-61
2022/08/01 19:10:43;;;;;;;2.23;1.77;;;;;;;21.32;66.16;100140.69;30025211;29;96921;-61
2022/08/01 19:25:44;;;;;;;4.23;2.23;;;;;;;21.41;66.52;100163.63;30023341;29;96831;-61
2022/08/01 19:40:44;;;;;;;3.67;2.00;;;;;;;20.73;67.04;100177.69;30022625;29;96840;-61
2022/08/01 19:55:46;;;;;;;4.30;2.38;;;;;;;20.32;69.00;100178.66;30024115;29;96739;-61
2022/08/01 20:10:47;;;;;;;5.23;2.40;;;;;;;20.46;69.76;100182.75;30022428;29;96744;-61
2022/08/01 20:25:49;;;;;;;;;;;;;;;21.13;68.94;100203.16;30022824;29;96746;-61
2022/08/01 20:40:52;;;;;;;4.37;2.43;;;;;;;20.97;68.56;100207.44;30028499;29;96741;-61
2022/08/01 20:56:00;;;;;;;3.50;2.70;;;;;;;20.64;68.65;100203.47;30052264;29;96837;-61
2022/08/01 21:11:02;;;;;;;5.23;2.97;;;;;;;20.19;69.32;100202.16;30031165;29;97519;-62
2022/08/01 21:26:02;;;;;;;6.17;3.07;;;;;;;19.92;70.29;100199.88;30031152;29;97082;-62
2022/08/01 21:41:06;;;;;;;4.07;2.67;;;;;;;19.79;71.04;100206.28;30033472;29;96821;-61
2022/08/01 21:56:16;;;;;;;4.60;2.90;;;;;;;19.75;71.18;100218.63;30033078;29;97528;-61
2022/08/01 22:11:23;;;;;;;5.07;3.20;;;;;;;19.70;71.40;100233.88;30033395;29;96785;-62
2022/08/01 22:26:24;;;;;;;5.00;3.50;;;;;;;19.47;71.79;100221.91;30031693;29;97526;-61
2022/08/01 22:41:30;;;;;;;4.37;3.40;;;;;;;19.20;72.33;100235.75;30028024;29;96875;-61
2022/08/01 22:56:35;;;;;;;4.33;3.07;;;;;;;19.20;73.14;100241.16;30027791;29;97050;-60
2022/08/01 23:11:37;;;;;;;5.00;3.17;;;;;;;19.21;72.90;100248.22;30026566;29;97530;-61
2022/08/01 23:26:38;;;;;;;5.27;3.40;;;;;;;19.23;72.90;100250.69;30026438;29;96706;-61
2022/08/01 23:41:39;;;;;;;5.57;3.57;;;;;;;19.07;73.06;100261.03;30024126;29;98368;-61
2022/08/01 23:56:39;;;;;;;5.00;3.40;;;;;;;19.08;73.15;100270.78;30023589;29;97373;-61
